Time;durP1;ratioP1;P1;durP2;ratioP2;P2;SDS_P1;SDS_P2;PMS_P1;PMS_P2;Temp;Humidity;BMP_temperature;BMP_pressure;BME280_temperature;BME280_humidity;BME280_pressure;Samples;Min_cycle;Max_cycle;Signal;HPM_P1;HPM_P2
2020/12/26 00:00:21;;;;;;;7.00;3.63;;;;;;;;;;5012893;28;20050;-74
2020/12/26 00:02:47;;;;;;;5.28;3.25;;;;;;;;;;5013279;28;20022;-75
2020/12/26 00:05:14;;;;;;;8.50;3.10;;;;;;;;;;5013096;28;20026;-75
2020/12/26 00:07:40;;;;;;;6.43;3.53;;;;;;;;;;4995207;28;20034;-76
2020/12/26 00:10:06;;;;;;;7.07;3.13;;;;;;;;;;5012906;28;20022;-76
2020/12/26 00:12:34;;;;;;;8.13;3.90;;;;;;;;;;5012932;28;20474;-76
2020/12/26 00:15:00;;;;;;;4.45;2.88;;;;;;;;;;5012766;28;20394;-75
2020/12/26 00:17:26;;;;;;;4.82;3.22;;;;;;;;;;5012903;28;20018;-75
2020/12/26 00:19:52;;;;;;;5.07;2.90;;;;;;;;;;5012826;28;20597;-75
2020/12/26 00:22:18;;;;;;;6.28;3.28;;;;;;;;;;5012764;28;20028;-76
2020/12/26 00:24:44;;;;;;;7.57;3.45;;;;;;;;;;4995012;28;20030;-73
2020/12/26 00:27:10;;;;;;;6.80;3.83;;;;;;;;;;5012801;28;20038;-75
2020/12/26 00:29:36;;;;;;;7.18;3.72;;;;;;;;;;5012609;28;20025;-75
2020/12/26 00:32:02;;;;;;;4.45;2.95;;;;;;;;;;5012701;28;20053;-73
2020/12/26 00:34:28;;;;;;;6.55;3.28;;;;;;;;;;5012575;28;20022;-76
2020/12/26 00:36:54;;;;;;;7.05;3.60;;;;;;;;;;5012814;28;20021;-73
2020/12/26 00:39:21;;;;;;;7.72;3.85;;;;;;;;;;5012578;28;20032;-74
2020/12/26 00:41:47;;;;;;;6.57;3.13;;;;;;;;;;5012468;28;20030;-75
2020/12/26 00:44:14;;;;;;;5.70;3.22;;;;;;;;;;5012579;28;20030;-75
2020/12/26 00:46:40;;;;;;;6.90;3.20;;;;;;;;;;4994958;28;20030;-73
2020/12/26 00:49:06;;;;;;;5.90;2.70;;;;;;;;;;5016657;28;20026;-73
2020/12/26 00:51:32;;;;;;;6.55;3.50;;;;;;;;;;4998983;28;20076;-73
2020/12/26 00:53:58;;;;;;;5.20;2.88;;;;;;;;;;5016465;28;20386;-73
2020/12/26 00:56:24;;;;;;;7.38;3.20;;;;;;;;;;5016694;28;20033;-73
2020/12/26 00:58:50;;;;;;;4.43;2.80;;;;;;;;;;5016141;28;20033;-72
2020/12/26 01:01:16;;;;;;;4.38;2.97;;;;;;;;;;5016335;28;20382;-74
2020/12/26 01:03:42;;;;;;;6.72;2.83;;;;;;;;;;5016197;28;20026;-72
2020/12/26 01:06:15;;;;;;;4.53;2.67;;;;;;;;;;5016248;28;20172;-73
2020/12/26 01:08:41;;;;;;;4.93;3.07;;;;;;;;;;5016472;28;20033;-75
2020/12/26 01:11:07;;;;;;;5.15;2.90;;;;;;;;;;5016231;28;20040;-74
2020/12/26 01:13:34;;;;;;;4.45;2.60;;;;;;;;;;5016152;28;20033;-75
2020/12/26 01:16:00;;;;;;;3.88;2.50;;;;;;;;;;5016247;28;20033;-76
2020/12/26 01:18:28;;;;;;;5.28;2.80;;;;;;;;;;5016213;28;20469;-73
2020/12/26 01:20:55;;;;;;;6.57;3.15;;;;;;;;;;5016353;28;20030;-72
2020/12/26 01:23:21;;;;;;;5.18;2.70;;;;;;;;;;5015880;28;20030;-73
2020/12/26 01:25:48;;;;;;;5.85;3.17;;;;;;;;;;5015931;28;20371;-73
2020/12/26 01:28:14;;;;;;;6.45;3.67;;;;;;;;;;5015902;28;20034;-75
2020/12/26 01:30:40;;;;;;;10.38;3.80;;;;;;;;;;5015788;28;20026;-73
2020/12/26 01:33:06;;;;;;;7.03;3.70;;;;;;;;;;5015975;28;20052;-76
2020/12/26 01:35:32;;;;;;;6.20;3.53;;;;;;;;;;5015745;28;20053;-75
2020/12/26 01:37:58;;;;;;;5.70;3.22;;;;;;;;;;5015717;28;20022;-74
2020/12/26 01:40:24;;;;;;;7.68;3.35;;;;;;;;;;5015766;28;20034;-72
2020/12/26 01:42:50;;;;;;;6.75;3.40;;;;;;;;;;5015656;28;20018;-72
2020/12/26 01:45:16;;;;;;;7.97;3.60;;;;;;;;;;4998059;28;20026;-73
2020/12/26 01:47:43;;;;;;;8.40;3.47;;;;;;;;;;5015556;28;20040;-73
2020/12/26 01:50:09;;;;;;;6.05;3.50;;;;;;;;;;5015834;28;20026;-73
2020/12/26 01:52:36;;;;;;;4.72;3.30;;;;;;;;;;5015566;28;20034;-72
2020/12/26 01:55:03;;;;;;;7.65;3.53;;;;;;;;;;5015759;28;20411;-73
2020/12/26 01:57:33;;;;;;;5.53;3.42;;;;;;;;;;5015245;28;20076;-73
2020/12/26 01:59:59;;;;;;;9.20;3.83;;;;;;;;;;5015062;28;20402;-74
2020/12/26 02:02:25;;;;;;;5.20;2.78;;;;;;;;;;5015525;28;20032;-73
2020/12/26 02:04:51;;;;;;;5.43;3.38;;;;;;;;;;5015375;28;20026;-73
2020/12/26 02:07:18;;;;;;;4.55;3.08;;;;;;;;;;5015152;28;20390;-72
2020/12/26 02:09:45;;;;;;;5.70;2.40;;;;;;;;;;5015213;28;20026;-75
2020/12/26 02:12:11;;;;;;;5.47;2.60;;;;;;;;;;4997366;28;20021;-73
2020/12/26 02:14:44;;;;;;;8.43;3.67;;;;;;;;;;5015013;28;20493;-74
2020/12/26 02:17:10;;;;;;;7.78;2.85;;;;;;;;;;5014884;28;20153;-73
2020/12/26 02:19:36;;;;;;;5.47;2.95;;;;;;;;;;5014933;28;20068;-72
2020/12/26 02:22:02;;;;;;;6.78;2.75;;;;;;;;;;5015063;28;20030;-74
2020/12/26 02:24:28;;;;;;;5.93;2.90;;;;;;;;;;5014904;28;20029;-73
2020/12/26 02:26:54;;;;;;;4.35;2.78;;;;;;;;;;5015082;28;20393;-74
2020/12/26 02:29:20;;;;;;;6.03;2.88;;;;;;;;;;5014664;28;20037;-73
2020/12/26 02:31:46;;;;;;;4.90;2.97;;;;;;;;;;5014542;28;20109;-74
2020/12/26 02:34:12;;;;;;;8.07;3.28;;;;;;;;;;5014589;28;20109;-73
2020/12/26 02:36:38;;;;;;;4.38;2.88;;;;;;;;;;5014711;28;20057;-74
2020/12/26 02:39:07;;;;;;;3.95;2.53;;;;;;;;;;5014542;28;20054;-74
2020/12/26 02:41:33;;;;;;;6.68;3.13;;;;;;;;;;5014372;28;20025;-74
2020/12/26 02:43:59;;;;;;;5.28;3.00;;;;;;;;;;5014597;28;20025;-74
2020/12/26 02:46:26;;;;;;;4.35;2.40;;;;;;;;;;5014570;28;20026;-74
2020/12/26 02:48:52;;;;;;;3.15;2.53;;;;;;;;;;5014590;28;20030;-73
2020/12/26 02:51:18;;;;;;;4.10;2.30;;;;;;;;;;5014314;28;20021;-74
2020/12/26 02:53:44;;;;;;;5.22;2.40;;;;;;;;;;5014413;28;20448;-74
2020/12/26 02:56:10;;;;;;;4.07;2.40;;;;;;;;;;5014320;28;20044;-74
2020/12/26 02:58:37;;;;;;;5.43;2.45;;;;;;;;;;5014077;28;20053;-74
2020/12/26 03:01:03;;;;;;;5.30;3.00;;;;;;;;;;5014167;28;20098;-73
2020/12/26 03:03:29;;;;;;;3.33;2.60;;;;;;;;;;5013894;28;20433;-74
2020/12/26 03:05:55;;;;;;;4.25;2.38;;;;;;;;;;5014047;28;20462;-73
2020/12/26 03:08:21;;;;;;;3.85;2.13;;;;;;;;;;5014227;28;20026;-74
2020/12/26 03:10:47;;;;;;;5.07;2.42;;;;;;;;;;4996088;28;20382;-74
2020/12/26 03:13:13;;;;;;;5.22;2.53;;;;;;;;;;5014016;28;20021;-74
2020/12/26 03:15:39;;;;;;;5.65;2.67;;;;;;;;;;5013903;28;20057;-74
2020/12/26 03:18:06;;;;;;;5.97;2.60;;;;;;;;;;4996186;28;20026;-74
2020/12/26 03:20:32;;;;;;;5.40;2.90;;;;;;;;;;5013787;28;20473;-74
2020/12/26 03:22:58;;;;;;;11.75;4.07;;;;;;;;;;5013889;28;20049;-74
2020/12/26 03:25:24;;;;;;;4.63;2.88;;;;;;;;;;5013953;28;20030;-75
2020/12/26 03:27:50;;;;;;;5.35;3.17;;;;;;;;;;4996062;28;20037;-74
2020/12/26 03:30:16;;;;;;;5.72;3.17;;;;;;;;;;4996158;28;20076;-74
2020/12/26 03:32:42;;;;;;;4.80;2.33;;;;;;;;;;5013656;28;20097;-74
2020/12/26 03:35:08;;;;;;;5.22;3.17;;;;;;;;;;5013651;28;20125;-75
2020/12/26 03:37:35;;;;;;;4.95;3.17;;;;;;;;;;5013411;28;20061;-75
2020/12/26 03:40:01;;;;;;;6.03;3.38;;;;;;;;;;5013572;28;20101;-74
2020/12/26 03:42:27;;;;;;;5.03;3.03;;;;;;;;;;5013438;28;20080;-74
2020/12/26 03:44:53;;;;;;;4.93;2.88;;;;;;;;;;5013627;28;20018;-75
2020/12/26 03:47:19;;;;;;;5.60;3.20;;;;;;;;;;5013325;28;20398;-74
2020/12/26 03:49:45;;;;;;;4.40;3.10;;;;;;;;;;5013230;28;20470;-75
2020/12/26 03:52:11;;;;;;;5.78;2.97;;;;;;;;;;5013352;28;20034;-74
2020/12/26 03:54:37;;;;;;;4.22;2.88;;;;;;;;;;5013262;28;20026;-75
2020/12/26 03:57:03;;;;;;;5.15;3.05;;;;;;;;;;5013209;28;20474;-75
2020/12/26 03:59:29;;;;;;;4.28;2.75;;;;;;;;;;5012882;28;20054;-75
2020/12/26 04:01:55;;;;;;;5.55;2.85;;;;;;;;;;5013171;28;20076;-75
2020/12/26 04:04:21;;;;;;;6.13;3.03;;;;;;;;;;5012957;28;20064;-74
2020/12/26 04:06:47;;;;;;;4.07;2.55;;;;;;;;;;5012889;28;20029;-74
2020/12/26 04:09:13;;;;;;;5.57;2.92;;;;;;;;;;5012863;28;20212;-75
2020/12/26 04:11:40;;;;;;;5.07;2.63;;;;;;;;;;5012891;28;20048;-75
2020/12/26 04:14:06;;;;;;;5.60;3.00;;;;;;;;;;5012966;28;20497;-75
2020/12/26 04:16:32;;;;;;;3.85;2.40;;;;;;;;;;5012718;28;20032;-75
2020/12/26 04:18:59;;;;;;;6.00;2.97;;;;;;;;;;5012913;28;20065;-75
2020/12/26 04:21:25;;;;;;;5.18;2.72;;;;;;;;;;5012908;28;20088;-75
2020/12/26 04:23:52;;;;;;;7.13;3.22;;;;;;;;;;5012900;28;20053;-74
2020/12/26 04:26:18;;;;;;;4.63;2.92;;;;;;;;;;5012607;28;20478;-75
2020/12/26 04:28:45;;;;;;;5.07;2.55;;;;;;;;;;5012850;28;20082;-75
2020/12/26 04:31:11;;;;;;;4.43;2.78;;;;;;;;;;5012771;28;20452;-74
2020/12/26 04:33:37;;;;;;;5.60;2.80;;;;;;;;;;5012682;28;20470;-75
2020/12/26 04:36:03;;;;;;;6.47;2.95;;;;;;;;;;5012742;28;20064;-75
2020/12/26 04:38:29;;;;;;;6.45;2.95;;;;;;;;;;5012659;28;20028;-74
2020/12/26 04:40:55;;;;;;;5.57;2.65;;;;;;;;;;5012896;28;20026;-75
2020/12/26 04:43:21;;;;;;;5.82;3.42;;;;;;;;;;4995385;28;20390;-76
2020/12/26 04:45:49;;;;;;;5.72;2.50;;;;;;;;;;5012691;28;20115;-75
2020/12/26 04:48:16;;;;;;;5.43;3.00;;;;;;;;;;5012567;28;20065;-75
2020/12/26 04:50:49;;;;;;;4.13;2.80;;;;;;;;;;5012677;28;20071;-75
2020/12/26 04:53:16;;;;;;;5.97;2.63;;;;;;;;;;5012585;28;20026;-75
2020/12/26 04:55:45;;;;;;;5.60;2.92;;;;;;;;;;5012574;28;20046;-74
2020/12/26 04:58:12;;;;;;;5.72;2.67;;;;;;;;;;5012270;28;20022;-76
2020/12/26 05:00:39;;;;;;;6.40;2.63;;;;;;;;;;5012443;28;20060;-75
2020/12/26 05:03:09;;;;;;;5.10;3.03;;;;;;;;;;5012372;28;20022;-76
2020/12/26 05:05:36;;;;;;;5.80;3.03;;;;;;;;;;5012585;28;20045;-76
2020/12/26 05:08:03;;;;;;;7.35;2.85;;;;;;;;;;5012180;28;20069;-75
2020/12/26 05:10:29;;;;;;;4.68;2.90;;;;;;;;;;5012279;28;20030;-75
2020/12/26 05:12:55;;;;;;;4.45;2.47;;;;;;;;;;5011951;28;20350;-75
2020/12/26 05:15:21;;;;;;;4.03;2.88;;;;;;;;;;5012344;28;20022;-76
2020/12/26 05:17:47;;;;;;;7.93;3.13;;;;;;;;;;5012304;28;20026;-74
2020/12/26 05:20:13;;;;;;;7.43;3.05;;;;;;;;;;5012311;28;20030;-75
2020/12/26 05:22:39;;;;;;;10.13;3.38;;;;;;;;;;4994699;28;20028;-75
2020/12/26 05:25:09;;;;;;;5.45;3.17;;;;;;;;;;5012235;28;20373;-76
2020/12/26 05:27:36;;;;;;;7.57;2.97;;;;;;;;;;5012221;28;20077;-75
2020/12/26 05:30:03;;;;;;;5.95;3.10;;;;;;;;;;5012123;28;20029;-76
2020/12/26 05:32:29;;;;;;;11.73;3.47;;;;;;;;;;5011946;28;20115;-75
2020/12/26 05:35:02;;;;;;;5.70;3.20;;;;;;;;;;5015827;28;20474;-76
2020/12/26 05:37:30;;;;;;;6.00;2.92;;;;;;;;;;5015631;28;20152;-76
2020/12/26 05:39:58;;;;;;;6.63;3.63;;;;;;;;;;5016304;28;20413;-76
2020/12/26 05:42:24;;;;;;;6.88;4.20;;;;;;;;;;5015738;28;20026;-76
2020/12/26 05:44:50;;;;;;;6.60;4.13;;;;;;;;;;5015606;28;20030;-74
2020/12/26 05:47:16;;;;;;;7.05;4.22;;;;;;;;;;5015367;28;20037;-76
2020/12/26 05:49:42;;;;;;;7.13;4.68;;;;;;;;;;4997962;28;20112;-76
2020/12/26 05:52:09;;;;;;;6.15;4.32;;;;;;;;;;5015456;28;20030;-76
2020/12/26 05:54:36;;;;;;;8.85;4.18;;;;;;;;;;5015448;28;20068;-76
2020/12/26 05:57:06;;;;;;;9.05;4.15;;;;;;;;;;5015397;28;20025;-74
2020/12/26 05:59:32;;;;;;;8.50;4.20;;;;;;;;;;5015185;28;20533;-75
2020/12/26 06:02:00;;;;;;;7.78;4.00;;;;;;;;;;4997609;28;20034;-74
2020/12/26 06:04:29;;;;;;;6.95;4.13;;;;;;;;;;5015262;28;20092;-74
2020/12/26 06:06:56;;;;;;;6.57;3.80;;;;;;;;;;5015353;28;20459;-76
2020/12/26 06:09:23;;;;;;;5.65;3.47;;;;;;;;;;5015229;28;20069;-76
2020/12/26 06:11:49;;;;;;;6.97;3.90;;;;;;;;;;5014961;28;20042;-76
2020/12/26 06:14:18;;;;;;;7.90;3.72;;;;;;;;;;5014884;28;20033;-77
2020/12/26 06:16:48;;;;;;;6.47;3.72;;;;;;;;;;5015218;28;20547;-76
2020/12/26 06:19:17;;;;;;;7.40;4.28;;;;;;;;;;5015153;28;20069;-74
2020/12/26 06:21:43;;;;;;;11.00;5.90;;;;;;;;;;5015038;28;20065;-76
2020/12/26 06:24:09;;;;;;;10.55;5.93;;;;;;;;;;4997346;28;20034;-75
2020/12/26 06:26:35;;;;;;;11.10;5.40;;;;;;;;;;5014745;28;20049;-77
2020/12/26 06:29:03;;;;;;;11.07;6.00;;;;;;;;;;5014827;28;20114;-74
2020/12/26 06:31:29;;;;;;;10.23;5.60;;;;;;;;;;5014813;28;20486;-76
2020/12/26 06:33:56;;;;;;;8.38;5.20;;;;;;;;;;5014923;28;20030;-77
2020/12/26 06:36:22;;;;;;;7.28;3.88;;;;;;;;;;5014729;28;20026;-75
2020/12/26 06:38:48;;;;;;;7.35;4.32;;;;;;;;;;5014655;28;20025;-76
2020/12/26 06:41:18;;;;;;;8.18;5.65;;;;;;;;;;5014558;28;20018;-75
2020/12/26 06:43:45;;;;;;;9.73;6.07;;;;;;;;;;5014320;28;20053;-75
2020/12/26 06:46:14;;;;;;;11.23;6.20;;;;;;;;;;5013342;28;20067;-76
2020/12/26 06:48:40;;;;;;;9.32;5.78;;;;;;;;;;5014619;28;20386;-74
2020/12/26 06:51:25;;;;;;;12.65;5.28;;;;;;;;;;5014388;28;20018;-74
2020/12/26 06:53:51;;;;;;;12.40;5.32;;;;;;;;;;5014482;28;20029;-76
2020/12/26 06:56:33;;;;;;;7.93;5.50;;;;;;;;;;5014312;28;20026;-73
2020/12/26 06:59:09;;;;;;;8.80;5.93;;;;;;;;;;4996474;28;20523;-76
2020/12/26 07:01:36;;;;;;;9.35;5.40;;;;;;;;;;5014251;28;20029;-77
2020/12/26 07:04:08;;;;;;;9.52;5.55;;;;;;;;;;5014338;28;20397;-76
2020/12/26 07:06:38;;;;;;;9.13;6.25;;;;;;;;;;5014126;28;20473;-77
2020/12/26 07:09:04;;;;;;;9.30;5.65;;;;;;;;;;5013874;28;20557;-77
2020/12/26 07:11:30;;;;;;;8.45;5.07;;;;;;;;;;5013973;28;20030;-74
2020/12/26 07:13:57;;;;;;;10.27;6.32;;;;;;;;;;5013908;28;20112;-75
2020/12/26 07:16:38;;;;;;;8.30;5.93;;;;;;;;;;5013999;28;20071;-77
2020/12/26 07:19:23;;;;;;;9.10;6.10;;;;;;;;;;4996354;28;20490;-77
2020/12/26 07:21:49;;;;;;;10.20;5.32;;;;;;;;;;5013740;28;20509;-74
2020/12/26 07:24:16;;;;;;;8.93;5.80;;;;;;;;;;5013661;28;20022;-77
2020/12/26 07:26:42;;;;;;;10.48;6.05;;;;;;;;;;5013714;28;20462;-76
2020/12/26 07:29:19;;;;;;;9.27;6.13;;;;;;;;;;5013645;28;20030;-76
2020/12/26 07:31:48;;;;;;;8.50;5.60;;;;;;;;;;5013561;28;20454;-76
2020/12/26 07:34:40;;;;;;;9.13;6.18;;;;;;;;;;5013573;28;20026;-77
2020/12/26 07:37:07;;;;;;;12.77;6.43;;;;;;;;;;4988552;28;20086;-75
2020/12/26 07:39:33;;;;;;;12.23;6.20;;;;;;;;;;4991340;28;20121;-76
2020/12/26 07:41:59;;;;;;;18.08;7.75;;;;;;;;;;4991353;28;20042;-75
2020/12/26 07:44:29;;;;;;;10.55;7.13;;;;;;;;;;4991608;28;20030;-74
2020/12/26 07:46:56;;;;;;;13.60;8.07;;;;;;;;;;4992748;28;20030;-75
2020/12/26 07:49:23;;;;;;;14.50;8.20;;;;;;;;;;5011249;28;20050;-76
2020/12/26 07:52:10;;;;;;;15.98;8.20;;;;;;;;;;5011182;28;20033;-74
2020/12/26 07:54:36;;;;;;;10.20;6.82;;;;;;;;;;5010898;28;20034;-76
2020/12/26 07:57:05;;;;;;;12.82;6.82;;;;;;;;;;4992811;28;20545;-75
2020/12/26 07:59:31;;;;;;;9.55;6.45;;;;;;;;;;5010259;28;20053;-76
2020/12/26 08:01:57;;;;;;;10.38;6.28;;;;;;;;;;5010873;28;20025;-77
2020/12/26 08:04:24;;;;;;;10.65;6.88;;;;;;;;;;5010808;28;20022;-75
2020/12/26 08:06:50;;;;;;;10.88;7.00;;;;;;;;;;5010785;28;20042;-76
2020/12/26 08:09:17;;;;;;;11.40;6.38;;;;;;;;;;5010584;28;20033;-77
2020/12/26 08:11:43;;;;;;;11.70;6.03;;;;;;;;;;5002704;28;20037;-77
2020/12/26 08:14:10;;;;;;;10.25;5.88;;;;;;;;;;5009691;28;20104;-75
2020/12/26 08:16:37;;;;;;;12.70;5.75;;;;;;;;;;5009603;28;20108;-74
2020/12/26 08:19:06;;;;;;;8.85;5.13;;;;;;;;;;5009999;28;20030;-76
2020/12/26 08:21:33;;;;;;;10.15;5.50;;;;;;;;;;4992735;28;20026;-74
2020/12/26 08:24:00;;;;;;;9.90;5.32;;;;;;;;;;5004242;28;20038;-76
2020/12/26 08:26:26;;;;;;;12.52;4.97;;;;;;;;;;4990866;28;20073;-75
2020/12/26 08:28:58;;;;;;;10.75;5.35;;;;;;;;;;4990763;28;20556;-75
2020/12/26 08:31:25;;;;;;;9.30;6.05;;;;;;;;;;4990761;28;20031;-76
2020/12/26 08:33:54;;;;;;;10.23;6.35;;;;;;;;;;4990708;28;20547;-74
2020/12/26 08:36:25;;;;;;;11.48;6.53;;;;;;;;;;5002453;28;20030;-76
2020/12/26 08:38:51;;;;;;;9.15;5.70;;;;;;;;;;5009273;28;20026;-75
2020/12/26 08:41:18;;;;;;;9.43;5.28;;;;;;;;;;5010331;28;20129;-76
2020/12/26 08:43:44;;;;;;;8.15;5.03;;;;;;;;;;5010059;28;20026;-76
2020/12/26 08:46:13;;;;;;;9.98;5.15;;;;;;;;;;5009841;28;20104;-74
2020/12/26 08:48:40;;;;;;;7.50;5.35;;;;;;;;;;5010000;28;20038;-75
2020/12/26 08:51:10;;;;;;;8.35;5.40;;;;;;;;;;5010034;28;20025;-75
2020/12/26 08:53:36;;;;;;;11.85;6.40;;;;;;;;;;5010109;28;20026;-76
2020/12/26 08:56:02;;;;;;;9.65;6.00;;;;;;;;;;5009978;28;20551;-77
2020/12/26 08:58:32;;;;;;;10.07;6.10;;;;;;;;;;5009820;28;20041;-77
2020/12/26 09:01:04;;;;;;;9.98;5.65;;;;;;;;;;5009972;28;20018;-76
2020/12/26 09:03:31;;;;;;;12.13;7.00;;;;;;;;;;5008692;28;20044;-77
2020/12/26 09:05:58;;;;;;;11.30;7.43;;;;;;;;;;5009945;28;20025;-75
2020/12/26 09:08:28;;;;;;;10.18;7.03;;;;;;;;;;5011156;28;20056;-77
2020/12/26 09:10:56;;;;;;;14.70;7.30;;;;;;;;;;5013675;28;20022;-77
2020/12/26 09:13:28;;;;;;;13.85;7.40;;;;;;;;;;5013605;28;20056;-74
2020/12/26 09:15:55;;;;;;;10.70;5.05;;;;;;;;;;5013705;28;20025;-77
2020/12/26 09:18:25;;;;;;;12.98;6.07;;;;;;;;;;5012329;28;20496;-76
2020/12/26 09:20:51;;;;;;;8.40;4.60;;;;;;;;;;5013727;28;20022;-76
2020/12/26 09:23:17;;;;;;;13.43;5.32;;;;;;;;;;5013270;28;20036;-75
2020/12/26 09:25:43;;;;;;;9.25;5.53;;;;;;;;;;5013659;28;20026;-75
2020/12/26 09:28:09;;;;;;;8.48;5.65;;;;;;;;;;5013552;28;20489;-76
2020/12/26 09:30:36;;;;;;;9.68;5.63;;;;;;;;;;4995898;28;20105;-76
2020/12/26 09:33:02;;;;;;;9.63;5.22;;;;;;;;;;4995652;28;20069;-75
2020/12/26 09:35:28;;;;;;;11.85;6.68;;;;;;;;;;5012985;28;20433;-76
2020/12/26 09:37:55;;;;;;;11.10;7.03;;;;;;;;;;5013412;28;20030;-75
2020/12/26 09:40:30;;;;;;;14.82;7.75;;;;;;;;;;5013031;28;20048;-75
2020/12/26 09:42:57;;;;;;;12.77;8.23;;;;;;;;;;5012948;28;20062;-75
2020/12/26 09:45:23;;;;;;;16.33;6.97;;;;;;;;;;5013021;28;20022;-75
2020/12/26 09:47:49;;;;;;;12.13;6.93;;;;;;;;;;4995256;28;20029;-76
2020/12/26 09:50:15;;;;;;;10.48;6.07;;;;;;;;;;5013167;28;20784;-76
2020/12/26 09:52:42;;;;;;;11.35;6.35;;;;;;;;;;5013318;28;20490;-77
2020/12/26 09:55:09;;;;;;;12.45;6.07;;;;;;;;;;5013244;28;20056;-76
2020/12/26 09:57:35;;;;;;;10.30;5.80;;;;;;;;;;5012995;28;20482;-77
2020/12/26 10:00:01;;;;;;;9.63;5.50;;;;;;;;;;5012280;28;20117;-77
2020/12/26 10:02:27;;;;;;;11.48;5.88;;;;;;;;;;5012734;28;20026;-75
2020/12/26 10:04:53;;;;;;;13.20;6.50;;;;;;;;;;5013031;28;20018;-76
2020/12/26 10:07:20;;;;;;;8.40;5.57;;;;;;;;;;5012624;28;20045;-75
2020/12/26 10:09:46;;;;;;;12.10;6.00;;;;;;;;;;5013020;28;20427;-75
2020/12/26 10:12:12;;;;;;;11.15;6.00;;;;;;;;;;4994637;28;20085;-76
2020/12/26 10:14:38;;;;;;;12.30;5.50;;;;;;;;;;5012811;28;20017;-78
2020/12/26 10:17:04;;;;;;;13.43;6.70;;;;;;;;;;5012598;28;20022;-77
2020/12/26 10:19:30;;;;;;;15.50;6.22;;;;;;;;;;5012065;28;20540;-76
2020/12/26 10:21:56;;;;;;;9.45;5.88;;;;;;;;;;5010412;28;20537;-77
2020/12/26 10:24:22;;;;;;;13.15;6.60;;;;;;;;;;4999407;28;20033;-76
2020/12/26 10:26:48;;;;;;;16.13;6.30;;;;;;;;;;4992835;28;20637;-76
2020/12/26 10:29:14;;;;;;;14.90;7.07;;;;;;;;;;4997694;28;20034;-77
2020/12/26 10:31:41;;;;;;;12.75;7.72;;;;;;;;;;5012324;28;20026;-75
2020/12/26 10:34:07;;;;;;;16.25;7.93;;;;;;;;;;5012153;28;20520;-75
2020/12/26 10:36:33;;;;;;;14.32;7.63;;;;;;;;;;5011628;28;20033;-74
2020/12/26 10:38:59;;;;;;;13.27;7.15;;;;;;;;;;5012434;28;20030;-75
2020/12/26 10:41:25;;;;;;;13.60;6.47;;;;;;;;;;5012017;28;20029;-76
2020/12/26 10:43:51;;;;;;;12.40;6.50;;;;;;;;;;5012204;28;20029;-76
2020/12/26 10:46:17;;;;;;;11.45;6.32;;;;;;;;;;5011686;28;20072;-76
2020/12/26 10:48:43;;;;;;;11.93;6.03;;;;;;;;;;5011719;28;20405;-77
2020/12/26 10:51:12;;;;;;;11.98;6.35;;;;;;;;;;4984890;28;20034;-77
2020/12/26 10:53:38;;;;;;;9.88;5.47;;;;;;;;;;4992401;28;20086;-77
2020/12/26 10:56:04;;;;;;;12.93;7.10;;;;;;;;;;4992215;28;20121;-75
2020/12/26 10:58:30;;;;;;;13.98;5.22;;;;;;;;;;4992102;28;20027;-75
2020/12/26 11:00:56;;;;;;;11.32;5.10;;;;;;;;;;4991931;28;20055;-75
2020/12/26 11:03:22;;;;;;;11.10;5.07;;;;;;;;;;4992443;28;20022;-76
2020/12/26 11:05:49;;;;;;;10.15;5.60;;;;;;;;;;4992244;28;20030;-76
2020/12/26 11:08:16;;;;;;;9.18;4.95;;;;;;;;;;4991881;28;20406;-76
2020/12/26 11:10:42;;;;;;;11.95;5.20;;;;;;;;;;4974327;28;20481;-76
2020/12/26 11:13:08;;;;;;;10.95;4.93;;;;;;;;;;4991861;28;20030;-75
2020/12/26 11:15:34;;;;;;;8.30;4.80;;;;;;;;;;4991951;28;20030;-75
2020/12/26 11:18:00;;;;;;;7.03;4.05;;;;;;;;;;4991660;28;20077;-75
2020/12/26 11:20:26;;;;;;;7.57;4.25;;;;;;;;;;4991904;28;20028;-75
2020/12/26 11:22:52;;;;;;;6.03;3.20;;;;;;;;;;4991669;28;20141;-76
2020/12/26 11:25:19;;;;;;;8.23;3.28;;;;;;;;;;4991596;28;20489;-76
2020/12/26 11:27:45;;;;;;;5.38;3.40;;;;;;;;;;4991676;28;20034;-76
2020/12/26 11:30:11;;;;;;;10.43;3.17;;;;;;;;;;4991642;28;20481;-75
2020/12/26 11:32:37;;;;;;;7.93;4.40;;;;;;;;;;4991499;28;20034;-76
2020/12/26 11:35:03;;;;;;;7.22;3.88;;;;;;;;;;4991270;28;20023;-76
2020/12/26 11:37:31;;;;;;;6.93;3.80;;;;;;;;;;4991607;28;20524;-75
2020/12/26 11:39:57;;;;;;;6.63;3.88;;;;;;;;;;4991433;28;20034;-76
2020/12/26 11:42:23;;;;;;;9.73;3.90;;;;;;;;;;4991619;28;20027;-75
2020/12/26 11:44:49;;;;;;;7.80;4.38;;;;;;;;;;4993792;28;20053;-77
2020/12/26 11:47:15;;;;;;;8.55;4.43;;;;;;;;;;4991727;28;20612;-77
2020/12/26 11:49:41;;;;;;;17.98;8.07;;;;;;;;;;5002468;28;20069;-77
2020/12/26 11:52:07;;;;;;;40.08;13.55;;;;;;;;;;5006634;28;20041;-75
2020/12/26 11:54:34;;;;;;;18.00;8.13;;;;;;;;;;5008257;28;20036;-76
2020/12/26 11:57:00;;;;;;;29.42;12.18;;;;;;;;;;4991037;28;20034;-77
2020/12/26 11:59:26;;;;;;;19.60;8.13;;;;;;;;;;4990874;28;20054;-76
2020/12/26 12:01:55;;;;;;;20.15;8.95;;;;;;;;;;4991098;28;20494;-77
2020/12/26 12:04:22;;;;;;;12.18;5.25;;;;;;;;;;4991175;28;20026;-76
2020/12/26 12:06:49;;;;;;;14.80;7.32;;;;;;;;;;4993679;28;20030;-78
2020/12/26 12:09:15;;;;;;;16.65;7.63;;;;;;;;;;5010467;28;20034;-76
2020/12/26 12:11:41;;;;;;;25.33;10.73;;;;;;;;;;5010261;28;20391;-75
2020/12/26 12:14:07;;;;;;;20.52;8.43;;;;;;;;;;5010223;28;20477;-79
2020/12/26 12:16:33;;;;;;;21.40;9.15;;;;;;;;;;5010646;28;20109;-78
2020/12/26 12:18:59;;;;;;;9.98;4.93;;;;;;;;;;5010381;28;20038;-75
2020/12/26 12:21:25;;;;;;;16.42;6.95;;;;;;;;;;5010538;28;20034;-75
2020/12/26 12:23:51;;;;;;;21.05;9.00;;;;;;;;;;5009856;28;20033;-76
2020/12/26 12:26:24;;;;;;;12.57;6.18;;;;;;;;;;4992567;28;20026;-76
2020/12/26 12:28:53;;;;;;;15.93;6.32;;;;;;;;;;5010131;28;20093;-76
2020/12/26 12:31:20;;;;;;;15.40;6.90;;;;;;;;;;5010253;28;20033;-76
2020/12/26 12:33:46;;;;;;;10.02;5.57;;;;;;;;;;5010377;28;20029;-78
2020/12/26 12:36:13;;;;;;;13.60;6.20;;;;;;;;;;5010219;28;20033;-78
2020/12/26 12:38:39;;;;;;;11.45;5.78;;;;;;;;;;5010497;28;20520;-76
2020/12/26 12:41:07;;;;;;;13.45;6.38;;;;;;;;;;5010360;28;20029;-78
2020/12/26 12:43:33;;;;;;;13.82;7.07;;;;;;;;;;4987711;28;20062;-78
2020/12/26 12:45:59;;;;;;;14.10;5.75;;;;;;;;;;4973081;28;20084;-76
2020/12/26 12:48:25;;;;;;;8.95;4.70;;;;;;;;;;4990107;28;20034;-75
2020/12/26 12:50:51;;;;;;;9.88;4.80;;;;;;;;;;4990573;28;20026;-76
2020/12/26 12:53:17;;;;;;;8.93;4.45;;;;;;;;;;4990451;28;20069;-75
2020/12/26 12:55:43;;;;;;;8.85;4.10;;;;;;;;;;4990219;28;20049;-76
2020/12/26 12:58:09;;;;;;;9.05;4.65;;;;;;;;;;4990307;28;20030;-75
2020/12/26 13:00:35;;;;;;;9.68;4.30;;;;;;;;;;4990018;28;20042;-75
2020/12/26 13:03:01;;;;;;;8.63;4.18;;;;;;;;;;4990555;28;20034;-76
2020/12/26 13:05:27;;;;;;;8.98;4.95;;;;;;;;;;4990383;28;20113;-77
2020/12/26 13:07:53;;;;;;;7.47;3.10;;;;;;;;;;4990486;28;20778;-77
2020/12/26 13:10:19;;;;;;;7.20;3.90;;;;;;;;;;4990103;28;20045;-75
2020/12/26 13:12:45;;;;;;;8.50;3.67;;;;;;;;;;4989871;28;20034;-77
2020/12/26 13:15:11;;;;;;;5.15;3.22;;;;;;;;;;4990083;28;20027;-78
2020/12/26 13:17:37;;;;;;;9.13;4.40;;;;;;;;;;4990025;28;20026;-77
2020/12/26 13:20:03;;;;;;;5.68;3.38;;;;;;;;;;5002117;28;20037;-77
2020/12/26 13:22:30;;;;;;;6.93;3.90;;;;;;;;;;4972810;28;20034;-78
2020/12/26 13:24:56;;;;;;;7.80;3.90;;;;;;;;;;4998118;28;20046;-75
2020/12/26 13:27:22;;;;;;;6.60;4.30;;;;;;;;;;5009811;28;20493;-78
2020/12/26 13:29:48;;;;;;;9.75;3.35;;;;;;;;;;5009828;28;20041;-77
2020/12/26 13:32:14;;;;;;;10.93;3.33;;;;;;;;;;5009730;28;20022;-77
2020/12/26 13:34:40;;;;;;;6.70;3.97;;;;;;;;;;5009451;28;20014;-77
2020/12/26 13:37:06;;;;;;;7.07;4.05;;;;;;;;;;5001383;28;20084;-76
2020/12/26 13:39:32;;;;;;;8.48;4.43;;;;;;;;;;4990139;28;20034;-76
2020/12/26 13:41:58;;;;;;;7.70;3.97;;;;;;;;;;4990126;28;20019;-78
2020/12/26 13:44:24;;;;;;;6.47;3.42;;;;;;;;;;4990254;28;20109;-77
2020/12/26 13:46:50;;;;;;;6.10;3.60;;;;;;;;;;4989721;28;20030;-76
2020/12/26 13:49:16;;;;;;;7.43;3.60;;;;;;;;;;4972638;28;20447;-77
2020/12/26 13:51:43;;;;;;;7.47;3.47;;;;;;;;;;4990130;28;20546;-75
2020/12/26 13:54:09;;;;;;;6.45;3.45;;;;;;;;;;4990640;28;20439;-77
2020/12/26 13:56:35;;;;;;;7.00;3.63;;;;;;;;;;4993527;28;20524;-77
2020/12/26 13:59:01;;;;;;;6.93;4.10;;;;;;;;;;4993033;28;20053;-77
2020/12/26 14:01:27;;;;;;;7.03;3.83;;;;;;;;;;4993225;28;20018;-76
2020/12/26 14:03:53;;;;;;;6.78;3.90;;;;;;;;;;4975737;28;20022;-77
2020/12/26 14:06:29;;;;;;;6.90;3.22;;;;;;;;;;4991864;28;20022;-76
2020/12/26 14:08:56;;;;;;;8.18;4.13;;;;;;;;;;4992212;28;20026;-76
2020/12/26 14:11:22;;;;;;;11.75;4.70;;;;;;;;;;4993049;28;20034;-75
2020/12/26 14:13:48;;;;;;;7.13;4.03;;;;;;;;;;5002974;28;20053;-76
2020/12/26 14:16:21;;;;;;;10.18;4.68;;;;;;;;;;5013030;28;20516;-76
2020/12/26 14:18:47;;;;;;;7.20;3.65;;;;;;;;;;5013209;28;20034;-75
2020/12/26 14:21:14;;;;;;;6.68;4.10;;;;;;;;;;5012791;28;20018;-77
2020/12/26 14:23:40;;;;;;;5.97;3.70;;;;;;;;;;5012394;28;20029;-75
2020/12/26 14:26:06;;;;;;;6.32;3.80;;;;;;;;;;5012609;28;20018;-75
2020/12/26 14:28:32;;;;;;;10.13;4.38;;;;;;;;;;5012551;28;20041;-76
2020/12/26 14:30:58;;;;;;;9.05;4.78;;;;;;;;;;5012544;28;20475;-76
2020/12/26 14:33:24;;;;;;;7.38;3.95;;;;;;;;;;5013041;28;20057;-76
2020/12/26 14:35:50;;;;;;;9.02;4.70;;;;;;;;;;5012463;28;20029;-76